Time;durP1;ratioP1;P1;durP2;ratioP2;P2;SDS_P1;SDS_P2;PMS_P1;PMS_P2;Temp;Humidity;BMP_temperature;BMP_pressure;BME280_temperature;BME280_humidity;BME280_pressure;Samples;Min_cycle;Max_cycle;Signal;HPM_P1;HPM_P2
2021/08/01 04:01:45;;;;;;;;;;;15.50;99.90;;;;;;5;36051322;41312071;-85
2021/08/01 04:04:59;;;;;;;;;;;15.50;99.90;;;;;;5;36027881;41280355;-85
2021/08/01 04:08:16;;;;;;;;;;;15.50;99.90;;;;;;5;36021504;41272313;-85
2021/08/01 04:11:37;;;;;;;;;;;15.50;99.90;;;;;;5;36019055;41274068;-85
2021/08/01 04:14:57;;;;;;;;;;;15.60;99.90;;;;;;5;36017700;41273143;-85
2021/08/01 04:18:11;;;;;;;;;;;15.60;99.90;;;;;;5;36018749;41271989;-84
2021/08/01 04:21:28;;;;;;;;;;;15.60;99.90;;;;;;5;36017904;41270854;-85
2021/08/01 04:24:48;;;;;;;;;;;15.60;99.90;;;;;;5;36017863;41270382;-84
2021/08/01 04:28:08;;;;;;;;;;;15.60;99.90;;;;;;5;36019464;42022325;-84
2021/08/01 04:31:23;;;;;;;;;;;15.60;99.90;;;;;;5;36017117;41270843;-83
2021/08/01 04:34:40;;;;;;;;;;;15.50;99.90;;;;;;5;36017162;41270525;-84
2021/08/01 04:38:01;;;;;;;;;;;15.60;99.90;;;;;;5;36016546;41270332;-83
2021/08/01 04:41:21;;;;;;;;;;;15.60;99.90;;;;;;5;36018123;41270517;-85
2021/08/01 04:44:35;;;;;;;;;;;15.60;99.90;;;;;;5;36018687;41271215;-86
2021/08/01 04:47:52;;;;;;;;;;;15.60;99.90;;;;;;5;36017228;41270152;-85
2021/08/01 04:51:11;;;;;;;;;;;15.70;99.90;;;;;;5;36016055;41270560;-84
2021/08/01 04:54:31;;;;;;;;;;;15.70;99.90;;;;;;5;36018480;41270552;-86
2021/08/01 04:57:45;;;;;;;;;;;15.70;99.90;;;;;;5;36017845;41271682;-86
2021/08/01 05:01:14;;;;;;;;;;;15.70;99.90;;;;;;5;36017442;42020504;-85
2021/08/01 05:04:33;;;;;;;;;;;15.70;99.90;;;;;;5;36017337;41272920;-85
2021/08/01 05:07:53;;;;;;;;;;;15.70;99.90;;;;;;5;36018384;41271832;-86
2021/08/01 05:11:07;;;;;;;;;;;15.70;99.90;;;;;;5;36017521;41270339;-86
2021/08/01 05:14:24;;;;;;;;;;;15.70;99.90;;;;;;5;36017970;41272024;-86
2021/08/01 05:17:44;;;;;;;;;;;15.70;99.90;;;;;;5;36018943;41272051;-86
2021/08/01 05:21:03;;;;;;;;;;;15.70;99.90;;;;;;5;36019562;41271029;-86
2021/08/01 05:24:17;;;;;;;;;;;15.70;99.90;;;;;;5;36017684;41271071;-85
2021/08/01 05:27:34;;;;;;;;;;;15.80;99.90;;;;;;5;36017311;41271108;-85
2021/08/01 05:30:54;;;;;;;;;;;15.80;99.90;;;;;;5;36017327;41270471;-85
2021/08/01 05:34:15;;;;;;;;;;;15.80;99.90;;;;;;5;36017926;42023004;-86
2021/08/01 05:37:30;;;;;;;;;;;15.80;99.90;;;;;;5;36018441;41271850;-84
2021/08/01 05:40:47;;;;;;;;;;;15.80;99.90;;;;;;5;36017703;41270590;-86
2021/08/01 05:44:06;;;;;;;;;;;15.80;99.90;;;;;;5;36016918;41271448;-86
2021/08/01 05:47:26;;;;;;;;;;;15.90;99.90;;;;;;5;36017782;41270736;-85
2021/08/01 05:50:40;;;;;;;;;;;15.90;99.90;;;;;;5;36017216;41271741;-86
2021/08/01 05:53:57;;;;;;;;;;;16.00;99.90;;;;;;5;36017210;41271307;-86
2021/08/01 05:57:17;;;;;;;;;;;16.10;99.90;;;;;;5;36018670;41271673;-86
2021/08/01 06:00:36;;;;;;;;;;;16.10;99.90;;;;;;5;36018787;41270720;-86
2021/08/01 06:03:50;;;;;;;;;;;16.10;99.90;;;;;;5;36018118;41270781;-86
2021/08/01 06:07:09;;;;;;;;;;;16.10;99.90;;;;;;5;36020528;42020503;-86
2021/08/01 06:10:28;;;;;;;;;;;16.10;99.90;;;;;;5;36017324;41271253;-86
2021/08/01 06:13:49;;;;;;;;;;;16.10;99.90;;;;;;5;36018661;41271422;-86
2021/08/01 06:17:03;;;;;;;;;;;16.10;99.90;;;;;;5;36017113;41270341;-85
2021/08/01 06:20:20;;;;;;;;;;;16.10;99.90;;;;;;5;36018658;41270987;-85
2021/08/01 06:23:40;;;;;;;;;;;16.10;99.90;;;;;;5;36016963;41270116;-85
2021/08/01 06:26:59;;;;;;;;;;;16.10;99.90;;;;;;5;36017397;41270232;-86
2021/08/01 06:30:13;;;;;;;;;;;16.20;99.90;;;;;;5;36018973;41271227;-86
2021/08/01 06:33:31;;;;;;;;;;;16.10;99.90;;;;;;5;36018577;41271330;-86
2021/08/01 06:36:51;;;;;;;;;;;16.10;99.90;;;;;;5;36017714;41271363;-86
2021/08/01 06:40:12;;;;;;;;;;;16.10;99.90;;;;;;5;36017429;42021031;-86
2021/08/01 06:43:26;;;;;;;;;;;16.10;99.90;;;;;;5;36019125;41272584;-86
2021/08/01 06:46:43;;;;;;;;;;;16.00;99.90;;;;;;5;36018407;41270847;-86
2021/08/01 06:50:03;;;;;;;;;;;16.00;99.90;;;;;;5;36018829;41271001;-85
2021/08/01 06:53:23;;;;;;;;;;;16.00;99.90;;;;;;5;36017494;41271381;-87
2021/08/01 06:56:37;;;;;;;;;;;15.90;99.90;;;;;;5;36018686;41271685;-86
2021/08/01 06:59:54;;;;;;;;;;;15.90;99.90;;;;;;5;36019479;41270748;-85
2021/08/01 07:03:13;;;;;;;;;;;15.90;99.90;;;;;;5;36016793;41271595;-84
2021/08/01 07:06:33;;;;;;;;;;;15.80;99.90;;;;;;5;36018847;41271414;-85
2021/08/01 07:09:47;;;;;;;;;;;15.70;99.90;;;;;;5;36019224;41270888;-86
2021/08/01 07:13:06;;;;;;;;;;;15.60;99.90;;;;;;5;36018275;42019744;-84
2021/08/01 07:16:26;;;;;;;;;;;15.50;99.90;;;;;;5;36018251;41271722;-85
2021/08/01 07:19:47;;;;;;;;;;;15.40;99.90;;;;;;5;36020907;41270633;-86
2021/08/01 07:23:02;;;;;;;;;;;15.30;99.90;;;;;;5;36020025;41270862;-85
2021/08/01 07:26:19;;;;;;;;;;;15.30;99.90;;;;;;5;36017972;41270622;-84
2021/08/01 07:29:39;;;;;;;;;;;15.30;99.90;;;;;;5;36019587;41270577;-86
2021/08/01 07:32:58;;;;;;;;;;;15.30;99.90;;;;;;5;36018873;41271450;-86
2021/08/01 07:36:13;;;;;;;;;;;15.20;99.90;;;;;;5;36017197;41271173;-85
2021/08/01 07:39:30;;;;;;;;;;;15.30;99.90;;;;;;5;36018843;41271115;-86
2021/08/01 07:42:49;;;;;;;;;;;15.20;99.90;;;;;;5;36019706;41272584;-86
2021/08/01 07:46:10;;;;;;;;;;;15.30;99.90;;;;;;5;36018644;42020613;-85
2021/08/01 07:49:24;;;;;;;;;;;15.40;99.90;;;;;;5;36018851;41272104;-84
2021/08/01 07:52:42;;;;;;;;;;;15.40;99.90;;;;;;5;36018730;41270552;-84
2021/08/01 07:56:01;;;;;;;;;;;15.50;99.90;;;;;;5;36019363;41271887;-86
2021/08/01 07:59:20;;;;;;;;;;;15.60;99.90;;;;;;5;36017970;41271573;-85
2021/08/01 08:02:35;;;;;;;;;;;15.70;99.90;;;;;;5;36019743;41272626;-85
2021/08/01 08:05:52;;;;;;;;;;;15.70;99.90;;;;;;5;36019020;41271430;-86
2021/08/01 08:09:11;;;;;;;;;;;15.80;99.90;;;;;;5;36018753;41271279;-86
2021/08/01 08:13:08;;;;;;;;;;;15.90;99.90;;;;;;5;36016747;41270854;-85
2021/08/01 08:16:22;;;;;;;;;;;16.20;99.90;;;;;;5;36019089;41271982;-85
2021/08/01 08:19:41;;;;;;;;;;;16.30;99.90;;;;;;5;36018685;42022663;-86
2021/08/01 08:23:00;;;;;;;;;;;16.50;99.90;;;;;;5;36018145;41271572;-85
2021/08/01 08:26:19;;;;;;;;;;;16.50;99.90;;;;;;5;36019725;41271540;-84
2021/08/01 08:29:34;;;;;;;;;;;16.40;99.90;;;;;;5;36019217;41271464;-86
2021/08/01 08:32:51;;;;;;;;;;;16.50;99.90;;;;;;5;36019251;41270646;-86
2021/08/01 08:36:10;;;;;;;;;;;16.60;99.90;;;;;;5;36019698;41271608;-84
2021/08/01 08:39:30;;;;;;;;;;;16.60;99.90;;;;;;5;36020254;41271755;-86
2021/08/01 08:42:46;;;;;;;;;;;16.80;99.90;;;;;;5;36018623;41271526;-85
2021/08/01 08:46:03;;;;;;;;;;;17.00;99.90;;;;;;5;36016870;41271556;-86
2021/08/01 08:49:23;;;;;;;;;;;17.00;99.90;;;;;;5;36018202;41271901;-84
2021/08/01 08:52:44;;;;;;;;;;;16.90;99.90;;;;;;5;36017512;42020721;-85
2021/08/01 08:55:58;;;;;;;;;;;16.90;99.90;;;;;;5;36018641;41271537;-85
2021/08/01 08:59:16;;;;;;;;;;;16.80;99.90;;;;;;5;36019018;41270687;-85
2021/08/01 09:02:36;;;;;;;;;;;16.70;99.90;;;;;;5;36016420;41270159;-85
2021/08/01 09:05:59;;;;;;;;;;;16.70;99.90;;;;;;5;36018007;41270876;-87
2021/08/01 09:09:13;;;;;;;;;;;16.80;99.90;;;;;;5;36017705;41271381;-86
2021/08/01 09:12:38;;;;;;;;;;;16.80;99.90;;;;;;5;36017823;41270768;-85
2021/08/01 09:15:58;;;;;;;;;;;16.80;99.90;;;;;;5;36017789;41271949;-84
2021/08/01 09:19:24;;;;;;;;;;;16.90;99.90;;;;;;5;36018791;41270553;-86
2021/08/01 09:22:38;;;;;;;;;;;16.90;99.90;;;;;;5;36017720;41271111;-86
2021/08/01 09:26:01;;;;;;;;;;;16.90;99.90;;;;;;5;36017721;42020638;-86
2021/08/01 09:29:21;;;;;;;;;;;16.90;99.90;;;;;;5;36018211;41272206;-85
2021/08/01 09:32:50;;;;;;;;;;;17.00;99.90;;;;;;5;36018785;41270832;-85
2021/08/01 09:36:05;;;;;;;;;;;17.00;99.90;;;;;;5;36018168;41270432;-84
2021/08/01 09:39:22;;;;;;;;;;;17.10;99.90;;;;;;5;36018186;41270623;-85
2021/08/01 09:42:43;;;;;;;;;;;17.30;99.90;;;;;;5;36018338;41271548;-86
2021/08/01 09:46:03;;;;;;;;;;;17.50;99.90;;;;;;5;36018662;41271280;-85
2021/08/01 09:49:19;;;;;;;;;;;17.60;99.90;;;;;;5;36016305;41270399;-85
2021/08/01 09:52:36;;;;;;;;;;;17.80;99.90;;;;;;5;36017530;41269656;-85
2021/08/01 09:56:28;;;;;;;;;;;18.00;99.90;;;;;;5;36018089;41270770;-85
2021/08/01 10:00:04;;;;;;;;;;;18.20;99.90;;;;;;5;36018526;42019278;-86
2021/08/01 10:03:33;;;;;;;;;;;18.10;99.90;;;;;;5;36018791;41270914;-85
2021/08/01 10:07:00;;;;;;;;;;;18.20;99.90;;;;;;5;36017811;41270593;-85
2021/08/01 10:10:24;;;;;;;;;;;18.20;99.90;;;;;;5;36017230;41270193;-85
2021/08/01 10:13:45;;;;;;;;;;;18.40;99.90;;;;;;5;36019284;41270818;-85
2021/08/01 10:16:59;;;;;;;;;;;18.70;99.90;;;;;;5;36018114;41270564;-84
2021/08/01 10:20:16;;;;;;;;;;;18.80;99.90;;;;;;5;36018414;41271674;-86
2021/08/01 10:23:39;;;;;;;;;;;18.90;99.90;;;;;;5;36017153;41270926;-86
2021/08/01 10:27:02;;;;;;;;;;;19.00;99.90;;;;;;5;36017531;41271822;-85
2021/08/01 10:30:21;;;;;;;;;;;19.10;99.90;;;;;;5;36017543;41271344;-85
2021/08/01 10:33:50;;;;;;;;;;;19.00;99.90;;;;;;5;36019592;42021916;-85
2021/08/01 10:37:12;;;;;;;;;;;19.00;99.90;;;;;;5;36018175;41271459;-85
2021/08/01 10:40:33;;;;;;;;;;;19.10;99.90;;;;;;5;36017141;41270580;-85
2021/08/01 10:43:48;;;;;;;;;;;19.30;99.90;;;;;;5;36017853;41269993;-85
2021/08/01 10:47:09;;;;;;;;;;;19.50;99.90;;;;;;5;36018277;41270547;-85
2021/08/01 10:50:30;;;;;;;;;;;19.70;98.50;;;;;;5;36018439;41270947;-85
2021/08/01 10:53:49;;;;;;;;;;;19.80;98.50;;;;;;5;36017111;41271597;-85
2021/08/01 10:57:13;;;;;;;;;;;19.90;97.10;;;;;;5;36018435;41272126;-86
2021/08/01 11:00:50;;;;;;;;;;;20.10;96.40;;;;;;5;36018415;41271429;-85
2021/08/01 11:04:32;;;;;;;;;;;20.30;97.70;;;;;;5;36019354;41270716;-85
2021/08/01 11:07:53;;;;;;;;;;;20.60;95.50;;;;;;5;36018214;42021220;-85
2021/08/01 11:11:25;;;;;;;;;;;20.90;95.50;;;;;;5;36018244;41271452;-85
2021/08/01 11:14:49;;;;;;;;;;;21.30;94.50;;;;;;5;36017338;41272249;-84
2021/08/01 11:18:08;;;;;;;;;;;21.50;93.50;;;;;;5;36019394;41270824;-85
2021/08/01 11:21:35;;;;;;;;;;;21.80;94.10;;;;;;5;36017315;41272690;-85
2021/08/01 11:25:08;;;;;;;;;;;21.80;91.90;;;;;;5;36018275;41271817;-84
2021/08/01 11:28:29;;;;;;;;;;;21.60;91.10;;;;;;5;36019635;41271753;-85
2021/08/01 11:32:04;;;;;;;;;;;21.30;90.60;;;;;;5;36017653;41271511;-83
2021/08/01 11:35:25;;;;;;;;;;;21.20;91.80;;;;;;5;36016742;41269904;-85
2021/08/01 11:38:59;;;;;;;;;;;21.20;91.80;;;;;;5;36017140;41272631;-84
2021/08/01 11:42:25;;;;;;;;;;;21.30;91.40;;;;;;5;36017599;42021249;-85
2021/08/01 11:46:10;;;;;;;;;;;21.20;91.60;;;;;;5;36017702;41271888;-85
2021/08/01 11:49:42;;;;;;;;;;;21.20;90.70;;;;;;5;36018836;41270692;-84
2021/08/01 11:52:56;;;;;;;;;;;21.10;91.50;;;;;;5;36018213;41270544;-85
2021/08/01 11:56:13;;;;;;;;;;;20.90;91.60;;;;;;5;36018331;41272532;-85
2021/08/01 11:59:33;;;;;;;;;;;20.80;91.80;;;;;;5;36017627;41270323;-84
2021/08/01 12:02:56;;;;;;;;;;;20.60;92.00;;;;;;5;36017745;41271357;-85
2021/08/01 12:06:11;;;;;;;;;;;20.50;92.40;;;;;;5;36018021;41271054;-85
2021/08/01 12:09:30;;;;;;;;;;;20.50;92.80;;;;;;5;36018583;41270256;-85
2021/08/01 12:12:50;;;;;;;;;;;20.40;92.70;;;;;;5;36018967;41271414;-86
2021/08/01 12:16:18;;;;;;;;;;;20.30;93.10;;;;;;5;36018000;42021928;-85
2021/08/01 12:19:32;;;;;;;;;;;20.10;93.10;;;;;;5;36018219;41270349;-84
2021/08/01 12:22:51;;;;;;;;;;;20.00;93.00;;;;;;5;36017945;41270470;-84
2021/08/01 12:26:10;;;;;;;;;;;20.00;92.10;;;;;;5;36018819;41271077;-86
2021/08/01 12:29:32;;;;;;;;;;;19.80;92.30;;;;;;5;36017743;41270625;-84
2021/08/01 12:32:47;;;;;;;;;;;19.70;93.70;;;;;;5;36018414;41272085;-85
2021/08/01 12:36:04;;;;;;;;;;;19.70;94.20;;;;;;5;36017829;41272597;-85
2021/08/01 12:39:24;;;;;;;;;;;19.70;92.00;;;;;;5;36018983;41270139;-86
2021/08/01 12:42:50;;;;;;;;;;;19.70;91.40;;;;;;5;36017473;41271368;-86
2021/08/01 12:46:14;;;;;;;;;;;19.80;92.10;;;;;;5;36017804;41270953;-85
2021/08/01 12:49:33;;;;;;;;;;;19.80;91.60;;;;;;5;36017410;42022235;-86
2021/08/01 12:52:53;;;;;;;;;;;19.90;92.70;;;;;;5;36017984;41271378;-86
2021/08/01 12:56:14;;;;;;;;;;;20.00;92.10;;;;;;5;36018874;41271526;-84
2021/08/01 12:59:28;;;;;;;;;;;20.10;91.30;;;;;;5;36018827;41270530;-85
2021/08/01 13:02:45;;;;;;;;;;;20.00;91.20;;;;;;5;36018652;41270584;-86
2021/08/01 13:06:05;;;;;;;;;;;20.00;93.40;;;;;;5;36017729;41271083;-84
2021/08/01 13:09:24;;;;;;;;;;;19.90;92.80;;;;;;5;36019785;41270827;-86
2021/08/01 13:12:39;;;;;;;;;;;19.70;91.80;;;;;;5;36018748;41271634;-85
2021/08/01 13:16:02;;;;;;;;;;;19.40;90.70;;;;;;5;36016774;41271848;-86
2021/08/01 13:19:23;;;;;;;;;;;19.40;92.40;;;;;;5;36018590;41272141;-85
2021/08/01 13:22:45;;;;;;;;;;;19.40;93.80;;;;;;5;36017948;42022597;-86
2021/08/01 13:26:13;;;;;;;;;;;19.50;90.60;;;;;;5;36018607;41271338;-85
2021/08/01 13:29:30;;;;;;;;;;;19.50;88.20;;;;;;5;36018819;41271017;-86
2021/08/01 13:32:50;;;;;;;;;;;19.60;89.20;;;;;;5;36017516;41270968;-86
2021/08/01 13:36:09;;;;;;;;;;;19.60;90.80;;;;;;5;36017729;41270100;-84
2021/08/01 13:39:26;;;;;;;;;;;19.50;90.90;;;;;;5;36018430;41271374;-84
2021/08/01 13:42:47;;;;;;;;;;;19.60;91.90;;;;;;5;36018551;41270201;-84
2021/08/01 13:46:16;;;;;;;;;;;19.70;92.70;;;;;;5;36018683;41271083;-84
2021/08/01 13:49:36;;;;;;;;;;;19.70;92.20;;;;;;5;36017683;41272086;-86
2021/08/01 13:52:50;;;;;;;;;;;19.70;91.90;;;;;;5;36018168;41271304;-84
2021/08/01 13:56:09;;;;;;;;;;;19.70;92.70;;;;;;5;36017807;42019602;-84
2021/08/01 13:59:28;;;;;;;;;;;19.60;91.00;;;;;;5;36016718;41270904;-86
2021/08/01 14:02:48;;;;;;;;;;;19.70;93.30;;;;;;5;36017929;41270139;-86
2021/08/01 14:06:02;;;;;;;;;;;19.50;92.00;;;;;;5;36019053;41269551;-85
2021/08/01 14:09:20;;;;;;;;;;;19.40;92.30;;;;;;5;36017226;41271065;-85
2021/08/01 14:12:40;;;;;;;;;;;19.40;92.90;;;;;;5;36016305;41270308;-85
2021/08/01 14:15:59;;;;;;;;;;;19.30;93.00;;;;;;5;36017622;41271678;-86
2021/08/01 14:19:14;;;;;;;;;;;19.20;90.90;;;;;;5;36018645;41270388;-86
2021/08/01 14:22:31;;;;;;;;;;;19.10;91.90;;;;;;5;36017320;41270940;-86
2021/08/01 14:25:54;;;;;;;;;;;19.00;90.60;;;;;;5;36016662;41269664;-84
2021/08/01 14:29:19;;;;;;;;;;;18.90;91.60;;;;;;5;36016373;42018860;-86
2021/08/01 14:32:33;;;;;;;;;;;18.80;92.40;;;;;;5;36018561;41268552;-86
2021/08/01 14:35:52;;;;;;;;;;;18.60;93.50;;;;;;5;36017195;41268920;-86
2021/08/01 14:39:17;;;;;;;;;;;18.50;95.40;;;;;;5;36015637;41269105;-87
2021/08/01 14:42:36;;;;;;;;;;;18.30;95.20;;;;;;5;36014781;41270256;-85
2021/08/01 14:45:50;;;;;;;;;;;18.20;95.70;;;;;;5;36017111;41269246;-86
2021/08/01 14:49:11;;;;;;;;;;;18.20;96.80;;;;;;5;36019407;41268889;-85
2021/08/01 14:56:09;;;;;;;;;;;18.10;97.10;;;;;;5;36018730;41271277;-86
2021/08/01 14:59:24;;;;;;;;;;;18.00;96.10;;;;;;5;36015775;41270150;-86
2021/08/01 15:02:49;;;;;;;;;;;17.90;96.30;;;;;;5;36018777;42024290;-84
2021/08/01 15:06:11;;;;;;;;;;;17.90;96.80;;;;;;5;36018917;41271295;-86
2021/08/01 15:09:49;;;;;;;;;;;17.90;97.60;;;;;;5;36018291;41269373;-84
2021/08/01 15:13:04;;;;;;;;;;;17.90;97.90;;;;;;5;36017264;41270531;-84
2021/08/01 15:16:23;;;;;;;;;;;17.80;97.80;;;;;;5;36018039;41269335;-85
2021/08/01 15:19:45;;;;;;;;;;;17.80;98.40;;;;;;5;36016335;41268298;-85
2021/08/01 15:23:07;;;;;;;;;;;17.80;98.30;;;;;;5;36018486;41270886;-85
2021/08/01 15:26:24;;;;;;;;;;;17.80;99.10;;;;;;5;36015609;41269900;-85
2021/08/01 15:29:43;;;;;;;;;;;17.90;99.70;;;;;;5;36018734;41272366;-86
2021/08/01 15:33:04;;;;;;;;;;;18.00;99.60;;;;;;5;36017898;41271076;-85
2021/08/01 15:36:25;;;;;;;;;;;17.90;98.90;;;;;;5;36017934;42021288;-87
2021/08/01 15:39:40;;;;;;;;;;;17.90;98.90;;;;;;5;36017794;41270514;-86
2021/08/01 15:42:59;;;;;;;;;;;17.80;99.50;;;;;;5;36018274;41270022;-88
2021/08/01 15:46:19;;;;;;;;;;;17.80;99.70;;;;;;5;36018542;41271176;-85
2021/08/01 15:49:39;;;;;;;;;;;17.80;99.90;;;;;;5;36018081;41269537;-87
2021/08/01 15:52:53;;;;;;;;;;;17.80;99.90;;;;;;5;36017693;41270314;-86
2021/08/01 15:56:11;;;;;;;;;;;17.70;99.90;;;;;;5;36018535;41270709;-85
2021/08/01 15:59:37;;;;;;;;;;;17.60;99.90;;;;;;5;36017670;41272054;-85
2021/08/01 16:02:59;;;;;;;;;;;17.70;99.90;;;;;;5;36018826;41271522;-86
2021/08/01 16:06:15;;;;;;;;;;;17.70;99.90;;;;;;5;36018803;41270909;-86
2021/08/01 16:09:52;;;;;;;;;;;17.60;99.90;;;;;;5;36021289;42021787;-85
2021/08/01 16:13:11;;;;;;;;;;;17.50;98.50;;;;;;5;36017620;41271391;-86
2021/08/01 16:16:35;;;;;;;;;;;17.50;98.60;;;;;;5;36017061;41271246;-88
2021/08/01 16:19:50;;;;;;;;;;;17.60;99.40;;;;;;5;36017853;41270240;-87
2021/08/01 16:23:07;;;;;;;;;;;17.60;98.30;;;;;;5;36018460;41273183;-83
2021/08/01 16:26:28;;;;;;;;;;;17.60;97.10;;;;;;5;36016561;41270855;-87
2021/08/01 16:29:47;;;;;;;;;;;17.50;96.50;;;;;;5;36016107;41269776;-84
2021/08/01 16:33:02;;;;;;;;;;;17.60;97.80;;;;;;5;36019243;41270212;-85
2021/08/01 16:36:20;;;;;;;;;;;17.70;97.60;;;;;;5;36017085;41270249;-86
2021/08/01 16:39:39;;;;;;;;;;;17.60;98.20;;;;;;5;36016648;41270208;-85
2021/08/01 16:43:05;;;;;;;;;;;17.60;98.70;;;;;;5;36017977;42018774;-87
2021/08/01 16:46:19;;;;;;;;;;;17.50;97.80;;;;;;5;36017564;41269141;-88
2021/08/01 16:49:55;;;;;;;;;;;17.50;99.10;;;;;;5;36016196;41271240;-86
2021/08/01 16:53:14;;;;;;;;;;;17.40;99.60;;;;;;5;36017269;41268591;-89
2021/08/01 16:56:43;;;;;;;;;;;17.30;98.30;;;;;;5;36017164;41269357;-86
2021/08/01 17:00:17;;;;;;;;;;;17.20;97.50;;;;;;5;36016727;41268788;-87
2021/08/01 17:03:47;;;;;;;;;;;17.10;98.30;;;;;;5;36017312;41270393;-86
2021/08/01 17:07:13;;;;;;;;;;;17.20;99.70;;;;;;5;36018294;41270718;-87
2021/08/01 17:10:35;;;;;;;;;;;17.00;97.50;;;;;;5;36016906;41270054;-87
2021/08/01 17:13:49;;;;;;;;;;;17.00;98.60;;;;;;5;36018521;41269410;-86
2021/08/01 17:17:08;;;;;;;;;;;16.80;99.20;;;;;;5;36017728;42020019;-87
2021/08/01 17:20:28;;;;;;;;;;;16.50;99.90;;;;;;5;36016413;41269750;-86
2021/08/01 17:23:47;;;;;;;;;;;16.60;99.90;;;;;;5;36017336;41269656;-86
2021/08/01 17:27:01;;;;;;;;;;;16.40;99.90;;;;;;5;36017039;41269056;-87
2021/08/01 17:30:20;;;;;;;;;;;16.30;99.90;;;;;;5;36016119;41270143;-87
2021/08/01 17:34:00;;;;;;;;;;;16.20;99.90;;;;;;5;36016836;41269774;-87
2021/08/01 17:37:22;;;;;;;;;;;16.20;99.90;;;;;;5;36016322;41269430;-86
2021/08/01 17:40:36;;;;;;;;;;;16.20;99.90;;;;;;5;36018207;41271325;-86
2021/08/01 17:43:53;;;;;;;;;;;16.10;99.90;;;;;;5;36018261;41268512;-87
2021/08/01 17:47:31;;;;;;;;;;;16.10;99.90;;;;;;5;36017982;41269986;-87
2021/08/01 17:50:52;;;;;;;;;;;16.00;99.90;;;;;;5;36018450;42020254;-87
2021/08/01 17:54:06;;;;;;;;;;;16.00;99.90;;;;;;5;36018176;41271382;-86
2021/08/01 17:57:25;;;;;;;;;;;15.90;99.90;;;;;;5;36016665;41269710;-87
2021/08/01 18:00:46;;;;;;;;;;;15.90;99.90;;;;;;5;36017675;41269900;-86
2021/08/01 18:04:06;;;;;;;;;;;15.90;99.90;;;;;;5;36016969;41269902;-87
2021/08/01 18:07:22;;;;;;;;;;;15.60;99.90;;;;;;5;36016278;41270086;-87
2021/08/01 18:10:59;;;;;;;;;;;15.60;99.90;;;;;;5;36017364;41270845;-86
2021/08/01 18:14:34;;;;;;;;;;;15.50;99.90;;;;;;5;36018506;41270512;-88
2021/08/01 18:17:56;;;;;;;;;;;15.60;99.90;;;;;;5;36017209;41269666;-89
2021/08/01 18:21:12;;;;;;;;;;;15.60;99.90;;;;;;5;36017122;41269390;-87
2021/08/01 18:24:33;;;;;;;;;;;15.60;99.90;;;;;;5;36016622;42019638;-88
2021/08/01 18:27:52;;;;;;;;;;;15.60;99.90;;;;;;5;36018331;41269617;-86
2021/08/01 18:31:15;;;;;;;;;;;15.60;99.90;;;;;;5;36017249;41270299;-87
2021/08/01 18:34:29;;;;;;;;;;;15.60;99.90;;;;;;5;36017640;41269611;-87
2021/08/01 18:37:46;;;;;;;;;;;15.60;99.90;;;;;;5;36017391;41270885;-88
2021/08/01 18:41:12;;;;;;;;;;;15.60;99.90;;;;;;5;36015724;41269850;-88
2021/08/01 18:44:32;;;;;;;;;;;15.60;99.90;;;;;;5;36017606;41269935;-87
2021/08/01 18:47:49;;;;;;;;;;;15.70;99.90;;;;;;5;36017258;41270485;-88
2021/08/01 18:51:06;;;;;;;;;;;15.60;99.90;;;;;;5;36017503;41270083;-87
2021/08/01 18:54:28;;;;;;;;;;;15.60;99.90;;;;;;5;36017055;41270768;-87
2021/08/01 18:57:50;;;;;;;;;;;15.60;99.90;;;;;;5;36016493;42020110;-88
2021/08/01 19:01:04;;;;;;;;;;;15.60;99.90;;;;;;5;36017008;41271157;-88
2021/08/01 19:04:21;;;;;;;;;;;15.50;99.90;;;;;;5;36017097;41271059;-88
2021/08/01 19:07:41;;;;;;;;;;;15.50;99.90;;;;;;5;36017853;41270221;-87
2021/08/01 19:11:01;;;;;;;;;;;15.50;99.90;;;;;;5;36016751;41269654;-86
2021/08/01 19:14:15;;;;;;;;;;;15.40;99.90;;;;;;5;36016843;41269238;-87
2021/08/01 19:17:32;;;;;;;;;;;15.30;99.90;;;;;;5;36015501;41268820;-87
2021/08/01 19:20:57;;;;;;;;;;;15.30;99.90;;;;;;5;36016121;41268893;-88
2021/08/01 19:24:18;;;;;;;;;;;15.30;99.90;;;;;;5;36016267;41272034;-88
2021/08/01 19:27:33;;;;;;;;;;;15.30;99.90;;;;;;5;36016563;41269386;-86
2021/08/01 19:30:52;;;;;;;;;;;15.30;99.90;;;;;;5;36016081;42018382;-87
2021/08/01 19:34:17;;;;;;;;;;;15.30;99.90;;;;;;5;36016274;41270075;-86
2021/08/01 19:37:37;;;;;;;;;;;15.30;99.90;;;;;;5;36015561;41269564;-86
2021/08/01 19:40:51;;;;;;;;;;;15.30;99.90;;;;;;5;36016715;41268405;-85
2021/08/01 19:44:09;;;;;;;;;;;15.30;99.90;;;;;;5;36014610;41269599;-85
2021/08/01 19:47:29;;;;;;;;;;;15.30;99.90;;;;;;5;36016955;41267294;-87
2021/08/01 19:50:48;;;;;;;;;;;15.30;99.90;;;;;;5;36016149;41267564;-85
2021/08/01 19:54:02;;;;;;;;;;;15.20;99.90;;;;;;5;36015960;41270158;-87
2021/08/01 19:57:20;;;;;;;;;;;15.20;99.90;;;;;;5;36015580;41268898;-86
2021/08/01 20:00:39;;;;;;;;;;;15.20;99.90;;;;;;5;36017555;41269477;-86
2021/08/01 20:04:00;;;;;;;;;;;15.20;99.90;;;;;;5;36015331;42018245;-85
2021/08/01 20:07:14;;;;;;;;;;;15.20;99.90;;;;;;5;36017314;41266955;-87
2021/08/01 20:10:32;;;;;;;;;;;15.10;99.90;;;;;;5;36017625;41266780;-86
2021/08/01 20:13:52;;;;;;;;;;;15.10;99.90;;;;;;5;36014766;41267129;-84
2021/08/01 20:17:12;;;;;;;;;;;15.10;99.90;;;;;;5;36014573;41267109;-87
2021/08/01 20:20:27;;;;;;;;;;;15.10;99.90;;;;;;5;36013798;41269209;-86
2021/08/01 20:23:44;;;;;;;;;;;15.10;99.90;;;;;;5;36014882;41267338;-87
2021/08/01 20:27:04;;;;;;;;;;;15.10;99.90;;;;;;5;36014345;41268278;-86
2021/08/01 20:30:24;;;;;;;;;;;15.10;99.90;;;;;;5;36016539;41267405;-85
2021/08/01 20:33:38;;;;;;;;;;;15.10;99.90;;;;;;5;36015409;41267038;-86
2021/08/01 20:36:57;;;;;;;;;;;15.10;99.90;;;;;;5;36015515;42020130;-87
2021/08/01 20:40:16;;;;;;;;;;;15.10;99.90;;;;;;5;36016110;41267913;-88
2021/08/01 20:43:36;;;;;;;;;;;15.00;99.90;;;;;;5;36015384;41267309;-87
2021/08/01 20:46:51;;;;;;;;;;;15.00;99.90;;;;;;5;36016973;41267391;-86
2021/08/01 20:50:09;;;;;;;;;;;15.00;99.90;;;;;;5;36015790;41269697;-86
2021/08/01 20:53:28;;;;;;;;;;;15.00;99.90;;;;;;5;36015992;41270586;-87
2021/08/01 20:56:48;;;;;;;;;;;15.00;99.90;;;;;;5;36016267;41269809;-86
2021/08/01 21:00:03;;;;;;;;;;;15.00;99.90;;;;;;5;36017435;41269644;-87
2021/08/01 21:03:21;;;;;;;;;;;15.00;99.90;;;;;;5;36015976;41270272;-88
2021/08/01 21:06:40;;;;;;;;;;;14.90;99.90;;;;;;5;36018157;41270127;-87
2021/08/01 21:10:02;;;;;;;;;;;14.80;99.90;;;;;;5;36018395;42020328;-88
2021/08/01 21:13:16;;;;;;;;;;;14.80;99.90;;;;;;5;36017767;41269636;-86
2021/08/01 21:16:33;;;;;;;;;;;14.80;99.90;;;;;;5;36017011;41270421;-85
2021/08/01 21:19:52;;;;;;;;;;;14.80;99.90;;;;;;5;36015423;41269984;-86
2021/08/01 21:23:12;;;;;;;;;;;14.70;99.90;;;;;;5;36017390;41270393;-86
2021/08/01 21:26:26;;;;;;;;;;;14.70;99.90;;;;;;5;36017772;41269493;-86
2021/08/01 21:29:43;;;;;;;;;;;14.70;99.90;;;;;;5;36017375;41270102;-85
2021/08/01 21:33:03;;;;;;;;;;;14.70;99.90;;;;;;5;36017104;41270544;-87
2021/08/01 21:36:22;;;;;;;;;;;14.70;99.90;;;;;;5;36017395;41269930;-88
2021/08/01 21:39:36;;;;;;;;;;;14.60;99.90;;;;;;5;36017702;41270209;-86
2021/08/01 21:42:58;;;;;;;;;;;14.50;99.90;;;;;;5;36017404;42020912;-86
2021/08/01 21:46:18;;;;;;;;;;;14.50;99.90;;;;;;5;36018996;41270456;-84
2021/08/01 21:49:37;;;;;;;;;;;14.40;99.90;;;;;;5;36015831;41268915;-86
2021/08/01 21:52:51;;;;;;;;;;;14.30;99.90;;;;;;5;36017031;41269460;-87
2021/08/01 21:56:09;;;;;;;;;;;14.20;99.90;;;;;;5;36015233;41270314;-86
2021/08/01 21:59:28;;;;;;;;;;;14.20;99.90;;;;;;5;36016418;41268670;-85
